Time;durP1;ratioP1;P1;durP2;ratioP2;P2;SDS_P1;SDS_P2;PMS_P1;PMS_P2;Temp;Humidity;BMP_temperature;BMP_pressure;BME280_temperature;BME280_humidity;BME280_pressure;Samples;Min_cycle;Max_cycle;Signal;HPM_P1;HPM_P2
2023/03/24 00:01:38;;;;;;;13.05;8.10;;;;;;;6.46;70.42;94889.91;5112016;28;20104;-80
2023/03/24 00:04:03;;;;;;;10.88;7.82;;;;;;;6.41;70.50;94891.16;5110761;28;20042;-80
2023/03/24 00:06:33;;;;;;;12.38;8.27;;;;;;;6.46;70.16;94877.00;5094119;28;20061;-80
2023/03/24 00:08:59;;;;;;;12.98;8.48;;;;;;;5.82;69.66;94785.69;5111469;28;20035;-80
2023/03/24 00:11:25;;;;;;;12.55;7.68;;;;;;;6.53;69.61;94881.75;5094010;28;20063;-80
2023/03/24 00:13:50;;;;;;;13.10;7.70;;;;;;;6.47;69.85;94885.56;5111547;28;20422;-80
2023/03/24 00:16:18;;;;;;;10.65;7.15;;;;;;;6.47;69.73;94880.41;5094817;28;20027;-80
2023/03/24 00:18:44;;;;;;;11.73;7.50;;;;;;;6.20;70.38;94878.69;5111399;28;20027;-81
2023/03/24 00:21:10;;;;;;;10.93;7.97;;;;;;;5.80;70.20;94819.34;5087049;28;20034;-80
2023/03/24 00:23:36;;;;;;;9.55;7.53;;;;;;;5.64;70.60;94820.41;5111570;28;20039;-79
2023/03/24 00:26:11;;;;;;;11.15;7.95;;;;;;;5.63;70.48;94817.00;5094814;28;20489;-80
2023/03/24 00:28:37;;;;;;;10.82;7.90;;;;;;;5.63;70.18;94801.53;5094857;28;20413;-81
2023/03/24 00:31:04;;;;;;;10.15;7.60;;;;;;;5.64;70.51;94816.06;5111732;28;20028;-80
2023/03/24 00:33:34;;;;;;;11.13;8.18;;;;;;;6.02;70.46;94896.19;5094608;28;20475;-80
2023/03/24 00:36:00;;;;;;;11.60;8.05;;;;;;;6.12;70.32;94900.75;5110674;28;20039;-81
2023/03/24 00:38:26;;;;;;;10.77;7.90;;;;;;;5.63;70.66;94837.63;5110198;28;20023;-80
2023/03/24 00:40:52;;;;;;;12.70;8.20;;;;;;;6.01;70.76;94901.41;5112661;28;20100;-80
2023/03/24 00:43:18;;;;;;;10.57;7.40;;;;;;;5.48;70.26;94805.06;5112523;28;20489;-80
2023/03/24 00:45:46;;;;;;;11.68;7.78;;;;;;;5.95;70.16;94894.09;5127866;27;20028;-80
2023/03/24 00:48:19;;;;;;;12.20;7.43;;;;;;;5.73;70.11;94859.31;5093443;28;20036;-80
2023/03/24 00:50:48;;;;;;;13.15;8.10;;;;;;;5.43;70.21;94804.53;5094734;28;20039;-80
2023/03/24 00:53:14;;;;;;;11.32;7.85;;;;;;;5.79;69.91;94860.66;5094642;28;20059;-80
2023/03/24 00:55:48;;;;;;;12.73;7.93;;;;;;;5.97;70.07;94885.31;5109669;28;20110;-80
2023/03/24 00:58:18;;;;;;;11.85;8.40;;;;;;;5.93;70.20;94883.84;5111212;28;20039;-80
2023/03/24 01:00:56;;;;;;;10.82;7.97;;;;;;;5.34;69.90;94786.16;5112213;27;20346;-80
2023/03/24 01:03:26;;;;;;;11.73;8.30;;;;;;;5.90;70.21;94876.28;5110306;28;20137;-80
2023/03/24 01:06:00;;;;;;;12.88;8.32;;;;;;;5.69;70.44;94865.59;5109980;28;20031;-80
2023/03/24 01:08:27;;;;;;;11.35;8.20;;;;;;;5.77;70.51;94876.25;5111510;27;20409;-80
2023/03/24 01:10:52;;;;;;;11.77;7.93;;;;;;;5.66;70.66;94872.69;5093394;28;20032;-80
2023/03/24 01:13:27;;;;;;;11.93;8.27;;;;;;;5.15;70.56;94793.38;5092440;28;20050;-80
2023/03/24 01:15:53;;;;;;;12.07;8.45;;;;;;;5.48;70.42;94836.00;5093792;28;20032;-80
2023/03/24 01:18:19;;;;;;;12.48;8.43;;;;;;;5.50;70.41;94857.34;5127775;27;20077;-80
2023/03/24 01:20:45;;;;;;;16.15;9.20;;;;;;;4.83;70.49;94751.59;5110047;28;20123;-80
2023/03/24 01:23:12;;;;;;;12.93;8.30;;;;;;;5.62;70.42;94864.31;5092780;28;20038;-80
2023/03/24 01:25:38;;;;;;;13.93;8.40;;;;;;;5.66;70.31;94876.09;5093410;28;20042;-80
2023/03/24 01:28:04;;;;;;;13.98;9.07;;;;;;;5.56;70.80;94867.28;5110779;27;20584;-80
2023/03/24 01:30:30;;;;;;;14.02;8.85;;;;;;;5.46;71.01;94871.31;5110830;28;20055;-80
2023/03/24 01:32:55;;;;;;;13.60;8.98;;;;;;;5.43;70.85;94869.75;5088971;28;20032;-80
2023/03/24 01:35:21;;;;;;;15.13;9.32;;;;;;;5.14;71.42;94853.53;5103730;28;20023;-81
2023/03/24 01:37:47;;;;;;;13.00;9.20;;;;;;;5.26;71.43;94864.81;5076147;28;20054;-81
2023/03/24 01:40:32;;;;;;;13.90;9.00;;;;;;;4.70;71.12;94764.38;5092954;28;20024;-80
2023/03/24 01:42:57;;;;;;;15.13;9.60;;;;;;;4.71;71.00;94760.91;5106817;28;20043;-80
2023/03/24 01:45:41;;;;;;;12.82;8.98;;;;;;;5.45;70.87;94877.41;5092619;28;20092;-81
2023/03/24 01:48:09;;;;;;;12.23;8.57;;;;;;;5.18;71.48;94856.75;5110964;28;20110;-81
2023/03/24 01:50:35;;;;;;;13.35;9.38;;;;;;;5.32;71.74;94872.19;5092322;28;20030;-81
2023/03/24 01:53:00;;;;;;;12.35;8.70;;;;;;;4.68;72.08;94787.63;5091687;28;20036;-80
2023/03/24 01:55:26;;;;;;;15.48;8.93;;;;;;;4.25;72.51;94738.72;5109857;28;20028;-81
2023/03/24 01:57:54;;;;;;;12.18;8.13;;;;;;;4.95;72.49;94835.78;5093153;28;20036;-81
2023/03/24 02:00:20;;;;;;;12.90;8.55;;;;;;;4.58;72.01;94783.13;5092379;28;20451;-81
2023/03/24 02:03:11;;;;;;;13.45;8.88;;;;;;;5.04;72.50;94881.59;5092500;28;20119;-81
2023/03/24 02:05:37;;;;;;;13.75;8.80;;;;;;;4.98;72.41;94888.84;5087185;28;20106;-80
2023/03/24 02:08:14;;;;;;;12.93;8.85;;;;;;;4.85;72.51;94866.41;5092087;28;20540;-80
2023/03/24 02:10:39;;;;;;;14.30;8.70;;;;;;;4.42;71.85;94788.34;5109419;28;20552;-80
2023/03/24 02:13:05;;;;;;;13.27;8.38;;;;;;;4.38;71.64;94786.88;5092833;28;20036;-80
2023/03/24 02:15:31;;;;;;;11.98;8.05;;;;;;;5.03;72.00;94886.84;5089838;28;20036;-80
2023/03/24 02:18:08;;;;;;;12.95;9.15;;;;;;;5.02;71.95;94888.59;5092013;28;20032;-80
2023/03/24 02:20:39;;;;;;;11.88;8.77;;;;;;;5.04;71.66;94891.91;5110135;28;20028;-81
2023/03/24 02:23:07;;;;;;;12.15;8.63;;;;;;;5.02;71.84;94886.00;5109777;28;20059;-80
2023/03/24 02:26:10;;;;;;;16.70;9.10;;;;;;;4.97;71.90;94879.47;5115213;28;20035;-80
2023/03/24 02:29:24;;;;;;;12.63;8.55;;;;;;;5.00;71.46;94884.44;5093515;28;20040;-80
2023/03/24 02:32:09;;;;;;;13.30;8.75;;;;;;;4.80;72.19;94894.16;5093668;28;20070;-80
2023/03/24 02:34:49;;;;;;;14.15;9.13;;;;;;;4.80;72.17;94894.16;5094724;28;20382;-80
2023/03/24 02:37:20;;;;;;;15.73;9.43;;;;;;;4.80;72.32;94889.03;5107174;28;20047;-80
2023/03/24 02:39:48;;;;;;;11.95;8.40;;;;;;;4.87;71.78;94887.72;5114720;28;20066;-80
2023/03/24 02:42:28;;;;;;;11.15;7.57;;;;;;;4.85;71.62;94881.88;5115108;28;20099;-80
2023/03/24 02:45:03;;;;;;;12.60;7.85;;;;;;;4.77;71.75;94873.75;5112612;28;20040;-80
2023/03/24 02:47:35;;;;;;;11.82;7.80;;;;;;;4.72;71.92;94870.63;5113415;28;20183;-80
2023/03/24 02:50:03;;;;;;;;;;;;;;;4.68;71.74;94874.28;5114583;28;20489;-80
2023/03/24 02:52:51;;;;;;;12.27;7.95;;;;;;;4.63;71.77;94881.47;5113295;28;19919;-80
2023/03/24 02:55:24;;;;;;;14.77;7.90;;;;;;;4.43;71.99;94847.44;5132411;27;20040;-80
2023/03/24 02:58:19;;;;;;;13.93;8.85;;;;;;;4.59;72.19;94846.53;5113360;28;20071;-80
2023/03/24 03:00:51;;;;;;;12.77;8.40;;;;;;;3.88;71.95;94729.78;5097674;28;20038;-80
2023/03/24 03:03:33;;;;;;;12.65;8.30;;;;;;;3.89;71.71;94725.47;5107680;28;20032;-80
2023/03/24 03:06:01;;;;;;;11.25;7.70;;;;;;;4.61;71.77;94837.81;5096318;28;20136;-80
2023/03/24 03:08:29;;;;;;;12.88;8.05;;;;;;;4.30;72.11;94801.94;5092375;28;20060;-80
2023/03/24 03:10:55;;;;;;;12.13;8.35;;;;;;;4.05;72.26;94759.66;5072902;28;20184;-80
2023/03/24 03:13:32;;;;;;;12.55;8.60;;;;;;;4.55;72.05;94842.50;5110599;27;20044;-80
2023/03/24 03:16:02;;;;;;;14.18;8.85;;;;;;;4.52;72.18;94852.97;5114399;27;20050;-80
2023/03/24 03:18:31;;;;;;;11.07;7.90;;;;;;;4.45;72.46;94840.44;5096189;28;20074;-80
2023/03/24 03:21:00;;;;;;;10.43;7.60;;;;;;;4.43;72.43;94850.00;5112276;28;20027;-80
2023/03/24 03:23:41;;;;;;;11.55;7.97;;;;;;;4.31;73.90;94855.84;5079027;28;20031;-80
2023/03/24 03:26:11;;;;;;;12.32;8.10;;;;;;;4.30;73.90;94833.63;5094556;28;20188;-80
2023/03/24 03:28:38;;;;;;;11.88;7.80;;;;;;;4.46;74.10;94831.00;5096025;28;20032;-80
2023/03/24 03:31:10;;;;;;;13.18;8.13;;;;;;;4.63;73.33;94853.16;5094106;28;20031;-80
2023/03/24 03:33:47;;;;;;;10.55;7.85;;;;;;;4.20;73.12;94794.75;5095544;28;20071;-80
2023/03/24 03:36:21;;;;;;;11.68;7.75;;;;;;;4.46;72.80;94825.84;5096398;28;20031;-80
2023/03/24 03:38:54;;;;;;;11.50;6.82;;;;;;;4.62;72.82;94844.59;5094595;28;20061;-80
2023/03/24 03:41:19;;;;;;;11.30;7.22;;;;;;;4.33;72.64;94784.59;5095994;28;20493;-80
2023/03/24 03:43:46;;;;;;;11.20;7.55;;;;;;;4.55;72.02;94827.06;5074965;28;20123;-80
2023/03/24 03:46:11;;;;;;;11.07;7.88;;;;;;;4.65;71.75;94833.28;5090032;28;20028;-80
2023/03/24 03:48:37;;;;;;;9.25;6.88;;;;;;;4.55;71.15;94811.63;5094358;28;20035;-80
2023/03/24 03:51:02;;;;;;;10.05;6.40;;;;;;;4.52;71.64;94838.34;5077838;28;20060;-80
2023/03/24 03:53:33;;;;;;;11.98;8.48;;;;;;;4.13;72.76;94811.47;5091935;28;20043;-80
2023/03/24 03:55:59;;;;;;;12.82;8.10;;;;;;;4.27;72.86;94814.97;5129664;27;20051;-80
2023/03/24 03:58:27;;;;;;;10.82;7.70;;;;;;;4.44;72.65;94846.50;5111680;28;20071;-80
2023/03/24 04:00:54;;;;;;;12.52;7.95;;;;;;;4.38;71.95;94849.44;5112813;28;20064;-80
2023/03/24 04:03:37;;;;;;;10.65;7.60;;;;;;;4.36;71.93;94848.69;5113328;28;20038;-80
2023/03/24 04:06:25;;;;;;;10.88;7.90;;;;;;;4.23;72.19;94832.31;5111110;28;20504;-80
2023/03/24 04:09:14;;;;;;;11.35;7.72;;;;;;;4.03;72.40;94816.28;5096387;28;20429;-80
2023/03/24 04:11:58;;;;;;;10.70;7.22;;;;;;;4.39;71.95;94873.41;5111171;28;20064;-80
2023/03/24 04:14:38;;;;;;;9.55;6.80;;;;;;;4.34;71.75;94881.38;5111590;28;20525;-80
2023/03/24 04:17:08;;;;;;;11.02;7.35;;;;;;;4.31;71.84;94876.41;5111646;28;20027;-80
2023/03/24 04:19:54;;;;;;;10.63;7.25;;;;;;;4.31;72.11;94884.13;5111660;28;20039;-81
2023/03/24 04:22:37;;;;;;;10.48;7.10;;;;;;;3.64;71.95;94782.56;5111048;28;20035;-80
2023/03/24 04:25:15;;;;;;;10.80;7.80;;;;;;;4.18;72.25;94872.88;5079491;28;20032;-80
2023/03/24 04:28:08;;;;;;;10.60;7.10;;;;;;;4.13;72.25;94870.59;5112085;28;20036;-81
2023/03/24 04:30:43;;;;;;;12.05;8.18;;;;;;;4.02;72.61;94880.66;5096571;28;20056;-81
2023/03/24 04:33:09;;;;;;;10.85;7.40;;;;;;;4.03;72.74;94864.31;5111700;28;20411;-81
2023/03/24 04:35:39;;;;;;;11.85;6.63;;;;;;;4.12;72.42;94874.06;5097356;28;20028;-81
2023/03/24 04:38:08;;;;;;;9.48;6.75;;;;;;;4.12;72.24;94863.78;5091920;28;20039;-81
2023/03/24 04:40:35;;;;;;;11.45;7.28;;;;;;;4.04;73.00;94868.56;5084734;28;20032;-80
2023/03/24 04:43:03;;;;;;;9.73;6.97;;;;;;;4.14;72.77;94877.38;5091117;28;20063;-81
2023/03/24 04:45:32;;;;;;;12.35;9.02;;;;;;;3.99;73.17;94870.56;5074392;28;20040;-81
2023/03/24 04:47:58;;;;;;;18.23;11.10;;;;;;;4.05;73.94;94877.91;5070195;28;20062;-81
2023/03/24 04:50:54;;;;;;;15.23;11.52;;;;;;;4.05;73.86;94889.94;5074556;28;20516;-81
2023/03/24 04:53:19;;;;;;;16.02;11.38;;;;;;;3.66;73.82;94821.84;5085691;28;20533;-80
2023/03/24 04:55:48;;;;;;;16.48;11.57;;;;;;;3.95;73.45;94894.75;5107484;27;20110;-81
2023/03/24 04:58:14;;;;;;;13.07;9.68;;;;;;;3.89;73.50;94889.97;5120666;27;20090;-81
2023/03/24 05:00:40;;;;;;;15.43;11.38;;;;;;;3.35;73.81;94815.84;5111226;28;20023;-81
2023/03/24 05:03:05;;;;;;;12.00;8.40;;;;;;;3.84;74.04;94897.09;5077252;28;20040;-80
2023/03/24 05:05:31;;;;;;;15.27;9.23;;;;;;;3.18;73.53;94785.94;5114103;27;20390;-81
2023/03/24 05:07:57;;;;;;;11.02;8.25;;;;;;;4.01;73.41;94907.25;5094634;28;20039;-80
2023/03/24 05:10:22;;;;;;;17.90;8.85;;;;;;;4.06;73.34;94905.25;5106383;28;20032;-81
2023/03/24 05:12:48;;;;;;;11.18;8.35;;;;;;;3.50;73.20;94827.81;5090828;28;20101;-79
2023/03/24 05:15:14;;;;;;;10.95;7.85;;;;;;;3.71;73.05;94868.69;5108438;27;20034;-81
2023/03/24 05:17:40;;;;;;;12.82;8.85;;;;;;;3.55;73.54;94859.22;5123741;27;20126;-82
2023/03/24 05:20:09;;;;;;;11.00;7.95;;;;;;;3.11;73.22;94784.59;5106515;28;20022;-81
2023/03/24 05:22:38;;;;;;;11.98;8.05;;;;;;;3.19;73.18;94797.03;5107621;28;20036;-82
2023/03/24 05:25:04;;;;;;;10.38;7.57;;;;;;;3.60;73.21;94866.69;5108398;28;20076;-81
2023/03/24 05:27:30;;;;;;;11.88;7.43;;;;;;;3.43;73.39;94874.50;5071516;28;20024;-81
2023/03/24 05:29:55;;;;;;;9.73;6.63;;;;;;;3.78;73.45;94904.22;5088764;28;20032;-82
2023/03/24 05:32:21;;;;;;;10.43;7.70;;;;;;;3.61;72.20;94814.41;5108569;28;20035;-81
2023/03/24 05:34:46;;;;;;;8.98;6.50;;;;;;;3.92;71.71;94822.97;5105968;28;20070;-81
2023/03/24 05:37:13;;;;;;;9.65;6.97;;;;;;;3.89;70.88;94803.41;5088494;28;20067;-81
2023/03/24 05:39:38;;;;;;;13.85;9.35;;;;;;;3.95;71.73;94826.16;5108025;28;20489;-81
2023/03/24 05:42:04;;;;;;;13.35;10.35;;;;;;;4.70;72.11;94913.63;5090569;28;20035;-81
2023/03/24 05:44:30;;;;;;;14.95;10.52;;;;;;;4.13;72.51;94816.59;5106717;28;20024;-81
2023/03/24 05:46:55;;;;;;;16.35;10.80;;;;;;;4.77;72.72;94902.06;5106144;28;20500;-82
2023/03/24 05:49:20;;;;;;;16.90;10.57;;;;;;;4.72;72.10;94880.94;5089751;28;20028;-81
2023/03/24 05:51:46;;;;;;;12.30;8.80;;;;;;;5.54;68.55;94838.19;5088975;28;20027;-82
2023/03/24 05:54:12;;;;;;;13.80;9.57;;;;;;;6.63;66.74;94891.38;5089142;28;20033;-81
2023/03/24 05:56:37;;;;;;;12.55;8.52;;;;;;;6.87;65.11;94839.84;5087202;28;20520;-82
2023/03/24 05:59:03;;;;;;;8.98;7.10;;;;;;;7.39;62.86;94788.94;5088579;28;20055;-81
2023/03/24 06:01:29;;;;;;;11.55;9.13;;;;;;;8.05;62.43;94821.22;5106023;28;20089;-81
2023/03/24 06:03:55;;;;;;;12.38;9.18;;;;;;;8.62;60.90;94830.00;5109943;28;20027;-82
2023/03/24 06:06:21;;;;;;;15.88;11.80;;;;;;;9.44;57.47;94813.44;5092350;28;20145;-82
2023/03/24 06:08:46;;;;;;;13.50;10.25;;;;;;;10.98;53.90;94906.63;5109874;28;20031;-81
2023/03/24 06:11:12;;;;;;;13.07;9.23;;;;;;;10.99;53.35;94882.25;5086906;28;20062;-81
2023/03/24 06:13:38;;;;;;;13.07;10.32;;;;;;;10.95;52.99;94879.09;5092568;28;20039;-81
2023/03/24 06:16:04;;;;;;;16.55;11.02;;;;;;;11.20;52.24;94853.66;5092815;28;20019;-81
2023/03/24 06:18:30;;;;;;;14.45;11.30;;;;;;;11.95;51.66;94906.25;5110045;28;20028;-80
2023/03/24 06:20:56;;;;;;;14.73;11.48;;;;;;;12.11;51.44;94909.16;5109554;28;20027;-81
2023/03/24 06:23:24;;;;;;;16.42;13.07;;;;;;;11.57;51.48;94889.53;5109895;28;20032;-81
2023/03/24 06:25:51;;;;;;;15.80;12.30;;;;;;;11.03;51.88;94826.47;5092118;28;20031;-81
2023/03/24 06:28:16;;;;;;;14.95;10.43;;;;;;;10.76;53.18;94814.03;5106080;28;20088;-80
2023/03/24 06:30:43;;;;;;;17.73;13.38;;;;;;;10.39;53.22;94774.66;5081540;28;20032;-81
2023/03/24 06:33:10;;;;;;;18.23;13.00;;;;;;;10.89;53.08;94861.41;5101085;28;20096;-81
2023/03/24 06:35:35;;;;;;;17.25;12.93;;;;;;;11.33;52.97;94911.44;5103908;28;20031;-81
2023/03/24 06:38:01;;;;;;;16.58;11.73;;;;;;;11.46;52.60;94910.44;5109848;28;20046;-81
2023/03/24 06:40:27;;;;;;;20.42;14.45;;;;;;;11.49;51.88;94897.97;5109797;28;20042;-81
2023/03/24 06:42:52;;;;;;;22.77;15.90;;;;;;;11.34;52.10;94847.28;5109771;28;20130;-80
2023/03/24 06:45:18;;;;;;;18.23;11.20;;;;;;;11.84;51.32;94920.19;5086249;28;20020;-81
2023/03/24 06:47:43;;;;;;;20.17;11.10;;;;;;;12.13;51.93;94916.84;5108393;28;20032;-81
2023/03/24 06:50:09;;;;;;;15.15;11.10;;;;;;;11.80;49.97;94825.09;5109555;28;20028;-81
2023/03/24 06:52:35;;;;;;;13.65;10.38;;;;;;;12.16;49.92;94849.69;5107556;28;20059;-79
2023/03/24 06:55:01;;;;;;;16.85;10.70;;;;;;;12.41;48.69;94855.34;5098009;28;20547;-81
2023/03/24 06:57:27;;;;;;;17.02;12.80;;;;;;;12.96;49.47;94920.75;5082425;28;20150;-81
2023/03/24 06:59:53;;;;;;;15.45;11.52;;;;;;;12.61;47.94;94822.25;5098175;28;20043;-81
2023/03/24 07:02:19;;;;;;;17.70;12.30;;;;;;;13.35;47.94;94921.53;5089434;28;20412;-81
2023/03/24 07:04:44;;;;;;;18.63;13.93;;;;;;;12.87;47.93;94830.31;5088587;28;20050;-80
2023/03/24 07:07:11;;;;;;;15.68;12.27;;;;;;;13.16;47.57;94845.88;5107795;28;20027;-80
2023/03/24 07:09:37;;;;;;;17.70;11.95;;;;;;;13.20;47.71;94839.41;5113474;28;20035;-80
2023/03/24 07:12:04;;;;;;;22.83;12.18;;;;;;;13.69;48.22;94928.81;5113935;28;20028;-81
2023/03/24 07:14:30;;;;;;;17.88;11.95;;;;;;;13.87;48.09;94921.03;5112001;28;20629;-78
2023/03/24 07:16:55;;;;;;;17.67;11.98;;;;;;;13.80;48.33;94927.84;5112299;27;20053;-80
2023/03/24 07:19:21;;;;;;;16.70;12.30;;;;;;;13.82;48.04;94924.13;5107955;28;20028;-77
2023/03/24 07:21:48;;;;;;;15.43;11.43;;;;;;;13.96;48.40;94920.19;5112482;28;20032;-77
2023/03/24 07:24:18;;;;;;;18.13;12.13;;;;;;;14.23;47.63;94921.97;5110623;28;20119;-78
2023/03/24 07:26:43;;;;;;;16.15;12.32;;;;;;;14.24;47.40;94928.03;5093389;28;20375;-78
2023/03/24 07:29:09;;;;;;;17.77;12.32;;;;;;;14.08;48.21;94924.25;5110248;28;20031;-78
2023/03/24 07:31:37;;;;;;;18.98;11.43;;;;;;;13.74;48.97;94928.41;5093293;28;20477;-78
2023/03/24 07:34:06;;;;;;;17.08;12.48;;;;;;;13.78;49.21;94925.34;5110848;28;20031;-78
2023/03/24 07:36:31;;;;;;;17.00;12.25;;;;;;;13.61;49.72;94926.94;5111002;28;20507;-78
2023/03/24 07:38:57;;;;;;;15.20;12.00;;;;;;;13.96;48.93;94922.00;5093497;28;20020;-77
2023/03/24 07:41:23;;;;;;;17.45;12.25;;;;;;;14.14;48.90;94920.22;5093735;28;20024;-77
2023/03/24 07:43:49;;;;;;;17.73;13.48;;;;;;;14.00;48.86;94925.94;5093606;28;20035;-77
2023/03/24 07:46:15;;;;;;;20.92;13.40;;;;;;;14.09;48.83;94918.03;5110748;28;20089;-77
2023/03/24 07:48:41;;;;;;;18.55;13.35;;;;;;;14.18;48.00;94919.00;5110719;28;20416;-77
2023/03/24 07:51:06;;;;;;;17.05;12.45;;;;;;;14.06;47.33;94910.50;5094063;28;20040;-77
2023/03/24 07:53:32;;;;;;;15.50;11.45;;;;;;;14.13;47.92;94917.78;5095589;28;20042;-77
2023/03/24 07:55:58;;;;;;;17.27;12.70;;;;;;;14.00;48.43;94892.00;5095559;28;20031;-77
2023/03/24 07:58:24;;;;;;;17.55;12.25;;;;;;;14.24;47.22;94905.34;5112525;28;20065;-78
2023/03/24 08:00:49;;;;;;;18.10;12.10;;;;;;;14.42;47.11;94913.19;5112241;27;20055;-78
2023/03/24 08:03:15;;;;;;;15.98;11.85;;;;;;;14.52;46.48;94890.44;5095420;28;20070;-77
2023/03/24 08:05:41;;;;;;;16.02;12.50;;;;;;;14.76;45.87;94907.31;5112156;28;20056;-76
2023/03/24 08:08:06;;;;;;;16.45;12.25;;;;;;;14.36;45.59;94858.09;5112399;28;20028;-77
2023/03/24 08:10:32;;;;;;;18.85;12.63;;;;;;;14.67;46.47;94895.16;5095229;28;20034;-77
2023/03/24 08:12:57;;;;;;;19.23;12.35;;;;;;;14.70;45.94;94897.47;5129219;27;20039;-77
2023/03/24 08:15:23;;;;;;;16.75;12.30;;;;;;;14.68;45.18;94900.25;5112255;28;20027;-76
2023/03/24 08:17:49;;;;;;;19.67;12.23;;;;;;;14.73;45.37;94879.69;5111838;27;20039;-77
2023/03/24 08:20:14;;;;;;;18.77;12.63;;;;;;;15.02;45.50;94891.69;5111922;28;20115;-77
2023/03/24 08:22:44;;;;;;;17.25;12.00;;;;;;;15.15;45.64;94880.81;5111995;28;20119;-77
2023/03/24 08:25:10;;;;;;;16.15;11.93;;;;;;;15.09;45.34;94884.03;5095175;28;20106;-76
2023/03/24 08:27:36;;;;;;;21.48;12.98;;;;;;;14.91;45.51;94869.22;5112063;28;20031;-77
2023/03/24 08:30:07;;;;;;;17.90;12.27;;;;;;;14.86;45.58;94861.00;5111919;28;20054;-78
2023/03/24 08:32:32;;;;;;;13.85;9.73;;;;;;;15.05;44.40;94890.56;5112989;27;20420;-77
2023/03/24 08:34:58;;;;;;;15.25;9.52;;;;;;;15.15;43.81;94884.25;5111875;28;20035;-77
2023/03/24 08:37:23;;;;;;;13.15;9.95;;;;;;;14.98;44.19;94885.91;5112012;28;20028;-77
2023/03/24 08:39:49;;;;;;;16.73;10.43;;;;;;;15.09;45.50;94877.00;5113085;28;20032;-77
2023/03/24 08:42:14;;;;;;;16.23;9.60;;;;;;;15.23;43.85;94883.47;5111671;28;20031;-77
2023/03/24 08:44:41;;;;;;;12.88;7.72;;;;;;;15.06;43.06;94874.69;5112872;28;20031;-78
2023/03/24 08:47:06;;;;;;;12.18;9.00;;;;;;;15.19;43.75;94848.97;5094788;28;20039;-76
2023/03/24 08:49:32;;;;;;;13.07;9.73;;;;;;;15.31;43.71;94865.22;5111488;28;20023;-77
2023/03/24 08:51:57;;;;;;;11.43;8.77;;;;;;;15.12;43.75;94819.13;5112583;28;20032;-77
2023/03/24 08:54:25;;;;;;;14.50;9.65;;;;;;;15.31;43.73;94854.75;5094492;28;20039;-78
2023/03/24 08:56:50;;;;;;;12.20;8.90;;;;;;;15.58;44.07;94851.13;5094836;28;20490;-78
2023/03/24 08:59:16;;;;;;;12.02;8.25;;;;;;;15.43;43.71;94842.22;5094276;28;20052;-77
2023/03/24 09:01:41;;;;;;;11.48;8.63;;;;;;;15.62;44.32;94841.16;5110948;28;20043;-77
2023/03/24 09:04:07;;;;;;;12.13;8.93;;;;;;;15.58;43.49;94840.66;5094364;28;20055;-77
2023/03/24 09:06:33;;;;;;;12.82;9.10;;;;;;;15.62;43.12;94836.72;5094157;28;20055;-77
2023/03/24 09:08:58;;;;;;;13.77;8.18;;;;;;;15.51;43.80;94823.91;5110993;28;20077;-77
2023/03/24 09:11:24;;;;;;;11.48;8.82;;;;;;;15.89;43.75;94831.47;5111055;28;20382;-77
2023/03/24 09:13:49;;;;;;;13.98;8.95;;;;;;;15.89;43.06;94826.25;5094004;28;20028;-77
2023/03/24 09:16:15;;;;;;;12.30;8.98;;;;;;;15.77;42.63;94829.16;5111030;28;20437;-77
2023/03/24 09:18:41;;;;;;;19.17;9.25;;;;;;;15.88;43.09;94816.72;5093944;28;20027;-77
2023/03/24 09:21:06;;;;;;;14.48;9.23;;;;;;;15.82;42.91;94818.19;5112361;28;20032;-77
2023/03/24 09:23:32;;;;;;;12.93;8.82;;;;;;;15.93;42.71;94811.84;5093752;28;20036;-77
2023/03/24 09:25:57;;;;;;;13.35;9.60;;;;;;;15.90;43.03;94812.97;5110848;27;20019;-77
2023/03/24 09:28:23;;;;;;;14.35;9.02;;;;;;;15.97;42.81;94813.97;5110175;28;20042;-77
2023/03/24 09:30:49;;;;;;;16.38;9.60;;;;;;;16.16;42.77;94812.88;5128051;27;20028;-77
2023/03/24 09:33:14;;;;;;;11.90;8.85;;;;;;;16.27;42.43;94814.38;5093883;28;20027;-77
2023/03/24 09:35:40;;;;;;;14.80;9.15;;;;;;;16.29;41.67;94801.91;5093501;28;20470;-77
2023/03/24 09:38:05;;;;;;;14.23;8.80;;;;;;;16.02;41.64;94789.94;5110794;28;20031;-77
2023/03/24 09:40:35;;;;;;;11.48;9.00;;;;;;;15.96;41.76;94777.44;5111489;28;20031;-77
2023/03/24 09:43:29;;;;;;;12.10;8.70;;;;;;;16.28;42.09;94801.09;5111005;28;20135;-77
2023/03/24 09:45:56;;;;;;;10.02;7.90;;;;;;;16.45;41.47;94799.31;5110983;28;20032;-77
2023/03/24 09:48:48;;;;;;;11.10;8.40;;;;;;;16.56;40.66;94794.72;5111817;28;20055;-77
2023/03/24 09:51:41;;;;;;;12.88;8.45;;;;;;;16.30;40.19;94788.66;5111535;28;20077;-77
2023/03/24 09:54:06;;;;;;;11.15;8.35;;;;;;;16.56;40.97;94784.25;5092119;28;20035;-77
2023/03/24 09:56:32;;;;;;;11.43;8.15;;;;;;;16.66;40.89;94793.59;5111555;28;20038;-77
2023/03/24 09:59:18;;;;;;;14.15;8.70;;;;;;;16.54;39.17;94781.78;5093569;28;20023;-77
2023/03/24 10:01:44;;;;;;;11.50;7.75;;;;;;;16.38;40.36;94782.59;5112075;28;20023;-77
2023/03/24 10:04:17;;;;;;;11.85;8.18;;;;;;;16.39;40.11;94773.75;5110341;28;20424;-77
2023/03/24 10:06:43;;;;;;;10.70;7.70;;;;;;;16.29;40.66;94773.88;5093660;28;20035;-77
2023/03/24 10:09:19;;;;;;;11.82;7.93;;;;;;;16.45;40.35;94770.47;5110212;28;20405;-77
2023/03/24 10:12:16;;;;;;;10.27;7.50;;;;;;;16.61;39.84;94769.66;5110213;28;20035;-77
2023/03/24 10:15:05;;;;;;;16.63;8.57;;;;;;;16.62;40.54;94741.63;5110210;28;20052;-77
2023/03/24 10:18:08;;;;;;;10.38;7.63;;;;;;;16.82;39.82;94757.84;5093419;28;20024;-76
2023/03/24 10:21:12;;;;;;;11.32;7.18;;;;;;;16.94;39.18;94759.16;5111383;28;20035;-77
2023/03/24 10:23:59;;;;;;;9.23;6.60;;;;;;;16.96;37.43;94751.91;5095295;28;20047;-77
2023/03/24 10:26:33;;;;;;;9.25;6.60;;;;;;;17.14;37.42;94749.91;5111622;28;20555;-77
2023/03/24 10:29:15;;;;;;;7.80;6.40;;;;;;;17.19;37.73;94754.66;5111524;28;20059;-77
2023/03/24 10:31:40;;;;;;;7.53;5.72;;;;;;;17.04;35.96;94749.28;5094232;28;20443;-77
2023/03/24 10:34:10;;;;;;;7.72;5.35;;;;;;;17.01;36.02;94740.91;5092995;28;20039;-77
2023/03/24 10:36:38;;;;;;;6.70;4.70;;;;;;;17.21;34.86;94744.78;5127484;27;20409;-76
2023/03/24 10:39:04;;;;;;;6.82;5.10;;;;;;;17.24;35.04;94736.56;5111378;28;20390;-77
2023/03/24 10:41:30;;;;;;;8.00;6.22;;;;;;;17.15;38.00;94724.47;5114497;27;20077;-77
2023/03/24 10:43:56;;;;;;;8.40;5.90;;;;;;;17.13;36.86;94736.94;5097033;28;20039;-77
2023/03/24 10:46:23;;;;;;;6.97;4.50;;;;;;;17.23;34.03;94740.19;5114209;28;20062;-77
2023/03/24 10:48:49;;;;;;;6.35;4.70;;;;;;;17.11;34.38;94717.94;5097250;28;20070;-76
2023/03/24 10:51:25;;;;;;;9.80;5.60;;;;;;;17.05;35.49;94735.19;5097486;28;20504;-76
2023/03/24 10:53:52;;;;;;;8.38;6.32;;;;;;;17.20;37.15;94725.59;5113931;28;20136;-76
2023/03/24 10:56:35;;;;;;;9.52;6.75;;;;;;;17.35;37.09;94730.13;5113946;27;20035;-77
2023/03/24 10:59:01;;;;;;;9.43;7.18;;;;;;;17.37;37.39;94728.16;5099358;28;20038;-77
2023/03/24 11:01:29;;;;;;;11.95;7.38;;;;;;;17.31;36.62;94715.72;5096839;28;20031;-77
2023/03/24 11:03:59;;;;;;;10.77;7.18;;;;;;;17.37;37.12;94715.84;5114191;27;20170;-77
2023/03/24 11:06:25;;;;;;;8.20;7.05;;;;;;;17.31;36.70;94721.78;5097230;28;20048;-77
2023/03/24 11:09:07;;;;;;;11.23;6.68;;;;;;;17.35;37.70;94724.88;5114707;28;20066;-77
2023/03/24 11:11:33;;;;;;;12.93;7.53;;;;;;;17.48;35.84;94706.78;5096835;28;20031;-77
2023/03/24 11:14:03;;;;;;;8.70;6.50;;;;;;;17.38;35.98;94679.91;5096821;28;20032;-77
2023/03/24 11:16:35;;;;;;;10.27;6.65;;;;;;;17.48;35.08;94705.97;5097430;28;20031;-77
2023/03/24 11:19:05;;;;;;;10.15;7.20;;;;;;;17.52;35.41;94681.00;5096837;28;20089;-77
2023/03/24 11:21:34;;;;;;;10.40;6.83;;;;;;;17.65;35.19;94676.00;5113681;28;20555;-77
2023/03/24 11:24:09;;;;;;;11.30;7.03;;;;;;;17.64;34.27;94700.63;5113639;27;20304;-77
2023/03/24 11:26:35;;;;;;;13.32;6.90;;;;;;;17.10;34.13;94671.66;5114006;27;20028;-77
2023/03/24 11:29:03;;;;;;;7.72;6.15;;;;;;;17.34;34.51;94691.75;5113167;28;20054;-77
2023/03/24 11:31:30;;;;;;;8.07;5.75;;;;;;;17.20;35.21;94690.66;5096406;28;20466;-77
2023/03/24 11:33:59;;;;;;;10.30;6.20;;;;;;;17.43;33.79;94686.28;5112987;28;20035;-77
2023/03/24 11:36:29;;;;;;;12.48;6.07;;;;;;;17.53;34.66;94682.63;5113378;28;20024;-77
2023/03/24 11:39:33;;;;;;;8.32;6.47;;;;;;;17.42;34.63;94686.47;5113184;28;20130;-77
2023/03/24 11:42:01;;;;;;;8.05;5.90;;;;;;;17.63;34.86;94683.22;5091710;28;20028;-77